createdAt,value
2023-02-19T00:52:39.668Z,72.74033203580828
2023-02-19T00:57:40.926Z,78.52839110400276
2023-02-19T01:02:42.179Z,71.46469683819966
2023-02-19T01:07:43.341Z,69.30283425480003
2023-02-19T01:12:44.602Z,71.99617608020465
2023-02-19T01:17:45.905Z,72.01936689494967
2023-02-19T01:22:47.107Z,72.97268325185699
2023-02-19T01:27:48.377Z,73.23815675582128
2023-02-19T01:32:49.585Z,73.50133042725533
2023-02-19T01:37:50.850Z,74.01833346608831
2023-02-19T01:48:02.365Z,73.63603114159541
2023-02-19T01:53:06.621Z,74.12103397614622
2023-02-19T01:58:09.828Z,73.20279204601863
2023-02-19T02:03:12.081Z,72.96519411615202
2023-02-19T02:08:12.309Z,72.32357134595728
2023-02-19T02:13:13.581Z,72.68993615386547
2023-02-19T02:18:26.764Z,73.66089771968284
2023-02-19T02:23:38.020Z,73.79989363508355
2023-02-19T02:28:53.208Z,74.96906324156109
2023-02-19T02:34:01.434Z,74.96995823526547
2023-02-19T02:39:06.665Z,75.42476083425862
2023-02-19T02:44:07.920Z,74.10272582529568
2023-02-19T02:49:14.136Z,74.90421232468128
2023-02-19T02:54:20.358Z,75.66797651480805
2023-02-19T02:59:23.662Z,74.81244967866714
2023-02-19T03:04:32.848Z,72.72612005394394
2023-02-19T03:09:41.098Z,72.10547223148623
2023-02-19T03:14:48.339Z,72.46175516471239
2023-02-19T03:19:54.543Z,72.26816727215586
2023-02-19T03:24:59.789Z,71.95987397246586
2023-02-19T03:30:08.059Z,71.72002943636691
2023-02-19T03:35:13.236Z,71.40972800041801
2023-02-19T03:40:14.525Z,71.0911730174573
2023-02-19T03:45:23.716Z,70.97906076561745
2023-02-19T03:50:30.976Z,70.24679169958851
2023-02-19T03:55:40.188Z,70.41472302885232
2023-02-19T04:00:44.473Z,70.59484161292495
2023-02-19T04:05:50.686Z,69.91886953794935
2023-02-19T04:10:53.932Z,70.29779271925597
2023-02-19T04:16:01.150Z,70.19701956777455
2023-02-19T04:21:07.423Z,70.38607730162333
2023-02-19T04:26:09.645Z,70.55489240715184
2023-02-19T04:31:11.259Z,70.69364323319427
2023-02-19T04:36:13.100Z,70.41328218306204
2023-02-19T04:46:19.654Z,70.92018175542154
2023-02-19T04:56:26.091Z,70.66221405230014
2023-02-19T05:01:26.359Z,70.52095473653033
2023-02-19T05:06:27.620Z,70.53394910081515
2023-02-19T05:11:28.822Z,70.50070263754142
2023-02-19T05:16:31.110Z,69.88470639144613
2023-02-19T05:21:32.314Z,69.65339957376995
2023-02-19T05:26:36.562Z,70.30473308517469
2023-02-19T05:31:39.944Z,70.4038317165359
2023-02-19T05:36:42.044Z,70.53573959604958
2023-02-19T05:41:44.283Z,70.84473220203573
2023-02-19T05:46:45.619Z,70.44677563643964
2023-02-19T05:51:49.761Z,69.90023829257423
2023-02-19T05:56:56.028Z,70.29751446864883
2023-02-19T06:01:58.253Z,70.07751878899306
2023-02-19T06:06:58.495Z,69.69217623577698
2023-02-19T06:12:00.713Z,69.96612993030882
2023-02-19T06:17:02.015Z,70.22269957765437
2023-02-19T06:27:08.529Z,69.22157341800121
2023-02-19T06:32:09.803Z,68.8780446749311
2023-02-19T06:37:10.986Z,70.36093657897156
2023-02-19T06:42:12.232Z,66.10111315026123
2023-02-19T06:47:13.487Z,67.1513146762432
2023-02-19T06:57:19.929Z,66.29863419164921
2023-02-19T07:07:26.409Z,65.73072386732474
2023-02-19T07:12:27.657Z,64.39287286078233
2023-02-19T07:17:28.917Z,63.641299278905976
2023-02-19T07:22:30.174Z,63.54101211410927
2023-02-19T07:27:31.412Z,63.35458963192457
2023-02-19T07:32:32.668Z,63.747904205199276
2023-02-19T07:37:33.921Z,63.2980236753991
2023-02-19T07:47:40.468Z,62.572661533849626
2023-02-19T07:52:41.640Z,62.18824710736137
2023-02-19T08:02:48.146Z,60.3275060191297
2023-02-19T08:07:49.381Z,59.650035345398976
2023-02-19T08:12:55.593Z,59.61621070076608
2023-02-19T08:17:56.874Z,59.627893595473154
2023-02-19T08:28:03.374Z,59.53736320835855
2023-02-19T08:38:10.836Z,59.15631340497813
2023-02-19T08:43:13.121Z,60.210385679104014
2023-02-19T08:48:14.310Z,59.91746004214794
2023-02-19T08:53:15.557Z,61.35223851811638
2023-02-19T09:03:22.078Z,61.3587039849632
2023-02-19T09:08:23.341Z,61.63823779157355
2023-02-19T09:18:29.756Z,61.6745257240691
2023-02-19T09:23:33.027Z,60.6150250823494
2023-02-19T09:28:34.316Z,59.385186900508096
2023-02-19T09:33:36.523Z,58.86264154449676
2023-02-19T09:43:47.004Z,58.04636549230011
2023-02-19T09:48:48.247Z,56.0293980324742
2023-02-19T09:53:53.460Z,55.6742358964099
2023-02-19T09:58:57.754Z,55.27460744952891
2023-02-19T10:03:59.946Z,54.65732265381216
2023-02-19T10:09:11.166Z,55.30247154619414
2023-02-19T10:14:15.436Z,55.38093788920098
2023-02-19T10:19:17.634Z,55.95712150551895
2023-02-19T10:24:23.938Z,55.5307558342339
2023-02-19T10:29:25.177Z,55.735888459924304
2023-02-19T10:34:27.365Z,56.00829314923896
2023-02-19T10:39:36.600Z,55.657886267046706
2023-02-19T10:44:43.868Z,56.15296748447932
2023-02-19T10:49:53.054Z,56.641341608555756
2023-02-19T10:55:02.329Z,56.78518038258787
2023-02-19T11:00:07.542Z,56.865496579971484
2023-02-19T11:05:16.759Z,56.885821437071414
2023-02-19T11:10:24.966Z,56.69182191668584
2023-02-19T11:15:28.225Z,56.44948255867493
2023-02-19T11:20:30.499Z,56.12819870649417
2023-02-19T11:25:34.745Z,56.13613320520965
2023-02-19T11:30:42.035Z,55.99800919611997
2023-02-19T11:35:48.193Z,56.06514913525536
2023-02-19T11:46:06.616Z,56.17594089096404
2023-02-19T11:51:18.848Z,55.80496808881132
2023-02-19T11:56:31.081Z,56.26297970754145
2023-02-19T12:01:46.377Z,55.98967522865924
2023-02-19T12:06:55.531Z,57.77977265243026
2023-02-19T12:12:05.698Z,57.79471869226325
2023-02-19T12:17:14.306Z,57.66921066311134
2023-02-19T12:22:28.194Z,55.86651316874525
2023-02-19T12:27:43.422Z,51.3311118237489
2023-02-19T12:32:57.593Z,50.19202598025425
2023-02-19T12:38:09.815Z,49.886276429394236
2023-02-19T12:43:18.057Z,51.757614312619054
2023-02-19T12:48:28.275Z,49.06018049862935
2023-02-19T12:53:37.541Z,47.962108844877534
2023-02-19T12:58:44.783Z,46.52097050444594
2023-02-19T13:03:49.990Z,47.293482663198496
2023-02-19T13:09:06.253Z,47.43907424510213
2023-02-19T13:14:11.408Z,48.66424011173875
2023-02-19T13:19:14.647Z,49.9170346183018
2023-02-19T13:24:16.925Z,45.5564690498588
2023-02-19T13:29:34.118Z,45.193842033337496
2023-02-19T13:34:46.346Z,45.29000557229012
2023-02-19T13:39:49.590Z,46.02487299476674
2023-02-19T13:44:55.837Z,45.14731844953022
2023-02-19T13:50:05.050Z,44.849408122970864
2023-02-19T13:55:11.291Z,45.54308425940261
2023-02-19T14:00:16.527Z,47.24100713629881
2023-02-19T14:10:33.989Z,42.67099622003418
2023-02-19T14:15:49.265Z,41.2547710804459
2023-02-19T14:21:04.395Z,40.50129297642961
2023-02-19T14:26:07.635Z,39.770485377049646
2023-02-19T14:31:18.447Z,38.52984255836398
2023-02-19T14:36:31.085Z,37.61342371753267
2023-02-19T14:41:33.317Z,38.64320196303332
2023-02-19T14:46:38.651Z,39.9778523388543
2023-02-19T14:51:45.823Z,39.79268499261923
2023-02-19T14:56:52.044Z,39.578719349290225
2023-02-19T15:01:59.261Z,38.25371020760198
2023-02-19T15:07:01.508Z,41.801352461661715
2023-02-19T15:12:03.754Z,39.449048881623256
2023-02-19T15:17:05.985Z,44.54579953043959
2023-02-19T15:22:11.231Z,41.57360221744022
2023-02-19T15:27:17.476Z,44.481617025595305
2023-02-19T15:32:19.769Z,49.71618841721245
2023-02-19T15:37:22.944Z,51.79737697704454
2023-02-19T15:42:26.235Z,52.28756534100209
2023-02-19T15:47:25.461Z,48.53654608750605
2023-02-19T15:52:29.710Z,54.15757573756728
2023-02-19T15:57:30.952Z,57.48631288133932
2023-02-19T16:02:27.791Z,58.330589343551395
2023-02-19T16:07:27.418Z,59.20241731358231
2023-02-19T16:12:24.703Z,60.08930938715152
2023-02-19T16:17:22.983Z,60.208910083449034
2023-02-19T16:22:20.222Z,61.120004079725625
2023-02-19T16:27:21.472Z,61.44081390737635
2023-02-19T16:32:22.873Z,62.286237089294076
2023-02-19T16:37:28.971Z,63.22260770593311
2023-02-19T16:42:43.166Z,63.23389991985628
2023-02-19T16:47:44.397Z,63.551421732974525
2023-02-19T16:52:50.691Z,63.69705358672115
2023-02-19T16:57:46.900Z,64.62430104938416
2023-02-19T17:02:49.168Z,65.5839075562209
2023-02-19T17:07:47.418Z,65.43246083546933
2023-02-19T17:12:44.689Z,65.66534957631882
2023-02-19T17:17:40.922Z,65.94718645226709
2023-02-19T17:22:36.210Z,66.77794021988488
2023-02-19T17:27:32.424Z,66.02892923421915
2023-02-19T17:32:28.848Z,66.30187367646626
2023-02-19T17:37:24.968Z,66.6266969551879
2023-02-19T17:42:21.260Z,66.60285860712912
2023-02-19T17:47:17.480Z,66.39910932546191
2023-02-19T17:52:13.748Z,67.17638717862886
2023-02-19T17:57:10.021Z,66.72446917043587
2023-02-19T18:02:06.290Z,66.23081986257358
2023-02-19T18:07:02.518Z,66.21734256944642
2023-02-19T18:11:58.806Z,65.6534984897465
2023-02-19T18:16:55.125Z,66.64474020961234
2023-02-19T18:21:51.286Z,66.20173097539765
2023-02-19T18:26:49.575Z,65.84832827205624
2023-02-19T18:31:45.911Z,65.54126702823626
2023-02-19T18:36:44.092Z,67.99460403791034
2023-02-19T18:41:46.291Z,67.93745277101486
2023-02-19T18:46:42.587Z,67.33742867496952
2023-02-19T18:51:40.851Z,66.66466585670703
2023-02-19T18:56:41.105Z,68.5817713609892
2023-02-19T19:01:37.360Z,69.55451473308773
2023-02-19T19:06:40.581Z,68.21224904870868
2023-02-19T19:11:36.837Z,69.36358968630572
2023-02-19T19:16:33.123Z,68.19744315481393
2023-02-19T19:21:29.368Z,67.21332218769277
2023-02-19T19:26:25.624Z,66.54482936553846
2023-02-19T19:31:22.048Z,66.26508141405202
2023-02-19T19:36:19.148Z,66.4296071962238
2023-02-19T19:41:15.402Z,65.02374401436296
2023-02-19T19:46:11.800Z,64.89923362918978
2023-02-19T19:51:07.920Z,64.87491887033376
2023-02-19T19:56:04.180Z,65.0672081894946
2023-02-19T20:01:00.444Z,65.57160058087348
2023-02-19T20:05:56.727Z,65.64240779878322
2023-02-19T20:10:52.930Z,64.84579273459096
2023-02-19T20:15:51.277Z,64.19531388994227
2023-02-19T20:20:48.458Z,64.76757116234
2023-02-19T20:25:44.740Z,65.74353064389616
2023-02-19T20:30:43.039Z,65.58791903271721
2023-02-19T20:35:39.252Z,65.95652950482325
2023-02-19T20:40:36.520Z,66.3894208531766
2023-02-19T20:45:31.797Z,65.75915431666452
2023-02-19T20:50:28.054Z,65.13129779741837
2023-02-19T20:55:25.284Z,65.59981416523966
2023-02-19T21:00:20.613Z,66.36569741764036
2023-02-19T21:05:16.815Z,65.70501920893204
2023-02-19T21:10:13.048Z,66.54934540432946
2023-02-19T21:15:09.315Z,67.55691658354444
2023-02-19T21:20:06.611Z,68.060646933624
2023-02-19T21:25:02.853Z,68.20666661732795
2023-02-19T21:29:59.117Z,67.61784128608717
2023-02-19T21:34:56.371Z,67.76974306850524
2023-02-19T21:39:53.657Z,68.41072606050011
2023-02-19T21:44:49.874Z,68.3244657017589
2023-02-19T21:49:46.138Z,68.69529097803121
2023-02-19T21:54:45.372Z,68.04786616324067
2023-02-19T21:59:41.610Z,66.61172806062362
2023-02-19T22:04:37.869Z,66.49393898544328
2023-02-19T22:09:34.155Z,67.52819922842002
2023-02-19T22:14:30.435Z,67.8386862663693
2023-02-19T22:19:26.647Z,68.47352716421857
2023-02-19T22:24:22.974Z,67.85247753445401
2023-02-19T22:29:19.234Z,67.35398705723703
2023-02-19T22:34:14.450Z,67.39254568951178
2023-02-19T22:39:14.706Z,67.14391376753402
2023-02-19T22:44:10.951Z,67.87877488166725
2023-02-19T22:49:07.271Z,67.68819087188446
2023-02-19T22:54:03.507Z,67.61930544055954
2023-02-19T22:58:59.732Z,67.95470092493629
2023-02-19T23:03:57.149Z,68.28399950919052
2023-02-19T23:08:52.304Z,68.52382375222693
2023-02-19T23:13:47.516Z,68.49065287788272
2023-02-19T23:18:43.765Z,68.12779166735271
2023-02-19T23:23:40.033Z,68.22235414228656
2023-02-19T23:28:35.345Z,68.34821487382112
2023-02-19T23:33:31.601Z,69.19566575379162
2023-02-19T23:38:27.869Z,69.79018580214358
2023-02-19T23:43:24.094Z,69.22398051802948
2023-02-19T23:48:20.366Z,69.7490909937039
2023-02-19T23:53:16.611Z,70.93120426547988
2023-02-19T23:58:12.835Z,69.5265443221417
